createdAt,value
2018-11-27T00:02:18.443Z,6.50
2018-11-27T00:04:48.497Z,6.60
2018-11-27T00:07:18.582Z,6.60
2018-11-27T00:09:48.633Z,6.50
2018-11-27T00:12:19.201Z,6.60
2018-11-27T00:14:50.113Z,6.50
2018-11-27T00:17:20.453Z,6.60
2018-11-27T00:19:50.792Z,6.40
2018-11-27T00:22:20.682Z,6.50
2018-11-27T00:24:50.722Z,6.50
2018-11-27T00:27:20.683Z,6.50
2018-11-27T00:29:50.802Z,6.40
2018-11-27T00:32:20.883Z,6.30
2018-11-27T00:34:50.932Z,6.40
2018-11-27T00:37:20.752Z,6.40
2018-11-27T00:39:51.353Z,6.40
2018-11-27T00:42:21.401Z,6.40
2018-11-27T00:44:51.575Z,6.40
2018-11-27T00:47:21.606Z,6.50
2018-11-27T00:49:51.482Z,6.60
2018-11-27T00:52:21.373Z,6.60
2018-11-27T00:54:52.432Z,6.50
2018-11-27T00:57:22.951Z,6.60
2018-11-27T00:59:53.292Z,6.50
2018-11-27T01:02:23.341Z,6.60
2018-11-27T01:04:53.702Z,6.60
2018-11-27T01:07:23.752Z,6.60
2018-11-27T01:09:53.911Z,6.50
2018-11-27T01:12:23.972Z,6.50
2018-11-27T01:14:53.992Z,6.60
2018-11-27T01:17:24.432Z,6.70
2018-11-27T01:19:54.414Z,6.60
2018-11-27T01:22:24.352Z,6.50
2018-11-27T01:24:54.623Z,6.60
2018-11-27T01:27:24.522Z,6.50
2018-11-27T01:29:54.992Z,6.60
2018-11-27T01:32:25.192Z,6.60
2018-11-27T01:34:55.072Z,6.60
2018-11-27T01:37:24.812Z,6.60
2018-11-27T01:39:54.893Z,6.50
2018-11-27T01:42:24.782Z,6.60
2018-11-27T01:44:54.411Z,6.50
2018-11-27T01:47:24.191Z,6.60
2018-11-27T01:49:54.312Z,6.60
2018-11-27T01:52:24.271Z,6.60
2018-11-27T01:54:54.372Z,6.60
2018-11-27T01:57:24.152Z,6.60
2018-11-27T01:59:54.133Z,6.60
2018-11-27T02:02:23.792Z,6.40
2018-11-27T02:04:53.961Z,6.40
2018-11-27T02:07:23.982Z,6.50
2018-11-27T02:09:54.012Z,6.60
2018-11-27T02:12:24.122Z,6.60
2018-11-27T02:14:54.104Z,6.70
2018-11-27T02:17:24.152Z,6.70
2018-11-27T02:19:54.213Z,6.70
2018-11-27T02:22:24.513Z,6.70
2018-11-27T02:24:54.413Z,6.70
2018-11-27T02:27:24.252Z,6.60
2018-11-27T02:29:54.329Z,6.60
2018-11-27T02:32:24.244Z,6.60
2018-11-27T02:34:54.543Z,6.60
2018-11-27T02:37:24.412Z,6.50
2018-11-27T02:39:54.625Z,6.60
2018-11-27T02:42:24.672Z,6.60
2018-11-27T02:44:54.724Z,6.60
2018-11-27T02:47:24.087Z,6.50
2018-11-27T02:49:53.954Z,6.40
2018-11-27T02:52:24.062Z,6.50
2018-11-27T02:54:54.287Z,6.60
2018-11-27T02:57:24.672Z,6.60
2018-11-27T02:59:54.456Z,6.50
2018-11-27T03:02:24.454Z,6.60
2018-11-27T03:04:54.277Z,6.60
2018-11-27T03:07:24.213Z,6.60
2018-11-27T03:09:54.546Z,6.80
2018-11-27T03:12:24.585Z,6.80
2018-11-27T03:14:54.692Z,6.70
2018-11-27T03:17:24.885Z,6.50
2018-11-27T03:19:54.934Z,6.70
2018-11-27T03:22:24.943Z,6.40
2018-11-27T03:24:54.914Z,6.40
2018-11-27T03:27:24.864Z,6.40
2018-11-27T03:29:54.933Z,6.30
2018-11-27T03:32:25.324Z,6.40
2018-11-27T03:34:55.374Z,6.30
2018-11-27T03:37:25.283Z,6.40
2018-11-27T03:39:55.472Z,6.30
2018-11-27T03:42:25.842Z,6.30
2018-11-27T03:44:55.856Z,6.30
2018-11-27T03:47:26.253Z,6.20
2018-11-27T03:49:56.495Z,6.10
2018-11-27T03:52:26.472Z,6.10
2018-11-27T03:54:56.673Z,6.10
2018-11-27T03:57:26.834Z,6.20
2018-11-27T03:59:57.073Z,6.10
2018-11-27T04:02:26.823Z,6.10
2018-11-27T04:04:56.912Z,6.00
2018-11-27T04:07:27.252Z,6.10
2018-11-27T04:09:57.452Z,6.10
2018-11-27T04:12:27.411Z,6.10
2018-11-27T04:14:57.493Z,6.10
2018-11-27T04:17:27.495Z,6.10
2018-11-27T04:19:57.424Z,6.10
2018-11-27T04:22:27.586Z,6.10
2018-11-27T04:24:57.744Z,6.10
2018-11-27T04:27:27.883Z,6.10
2018-11-27T04:29:58.242Z,6.10
2018-11-27T04:32:28.265Z,6.10
2018-11-27T04:34:58.373Z,6.00
2018-11-27T04:37:28.343Z,6.00
2018-11-27T04:39:58.393Z,6.00
2018-11-27T04:42:28.553Z,6.10
2018-11-27T04:44:58.663Z,6.00
2018-11-27T04:47:29.005Z,6.00
2018-11-27T04:49:59.473Z,6.00
2018-11-27T04:52:29.725Z,6.00
2018-11-27T04:54:59.457Z,6.00
2018-11-27T04:57:29.494Z,6.00
2018-11-27T04:59:59.214Z,6.00
2018-11-27T05:02:30.338Z,6.00
2018-11-27T05:04:59.393Z,6.10
2018-11-27T05:07:29.554Z,6.00
2018-11-27T05:09:59.602Z,5.90
2018-11-27T05:12:29.714Z,5.90
2018-11-27T05:14:59.763Z,6.00
2018-11-27T05:17:29.823Z,6.00
2018-11-27T05:20:00.224Z,6.00
2018-11-27T05:22:30.342Z,6.00
2018-11-27T05:25:00.222Z,6.00
2018-11-27T05:27:30.253Z,5.90
2018-11-27T05:30:00.332Z,6.00
2018-11-27T05:32:30.422Z,6.10
2018-11-27T05:35:00.423Z,6.00
2018-11-27T05:37:30.822Z,6.00
2018-11-27T05:40:00.724Z,6.00
2018-11-27T05:42:30.633Z,5.90
2018-11-27T05:45:01.082Z,6.10
2018-11-27T05:47:31.353Z,6.20
2018-11-27T05:50:01.359Z,6.10
2018-11-27T05:52:31.223Z,6.10
2018-11-27T05:55:01.422Z,6.10
2018-11-27T05:57:31.543Z,6.30
2018-11-27T06:00:01.803Z,6.30
2018-11-27T06:02:32.882Z,6.10
2018-11-27T06:05:02.942Z,6.10
2018-11-27T06:07:32.922Z,6.30
2018-11-27T06:10:02.983Z,6.20
2018-11-27T06:12:33.112Z,6.20
2018-11-27T06:15:03.193Z,6.20
2018-11-27T06:17:32.913Z,6.10
2018-11-27T06:20:03.262Z,6.10
2018-11-27T06:22:33.234Z,6.20
2018-11-27T06:25:03.243Z,6.20
2018-11-27T06:27:34.023Z,6.20
2018-11-27T06:30:04.913Z,6.20
2018-11-27T06:32:34.873Z,6.20
2018-11-27T06:35:04.992Z,6.20
2018-11-27T06:37:34.613Z,6.30
2018-11-27T06:40:07.653Z,6.30
2018-11-27T06:42:37.842Z,6.30
2018-11-27T06:45:13.541Z,6.20
2018-11-27T06:47:44.143Z,6.30
2018-11-27T06:50:15.583Z,6.10
2018-11-27T06:52:45.432Z,6.20
2018-11-27T06:55:20.012Z,6.30
2018-11-27T06:57:50.232Z,6.20
2018-11-27T07:00:27.356Z,6.30
2018-11-27T07:02:58.482Z,6.30
2018-11-27T07:05:28.618Z,6.40
2018-11-27T07:07:58.841Z,6.50
2018-11-27T07:10:33.502Z,6.50
2018-11-27T07:13:11.891Z,6.40
2018-11-27T07:15:42.041Z,6.40
2018-11-27T07:18:12.062Z,6.40
2018-11-27T07:20:42.272Z,6.40
2018-11-27T07:23:12.132Z,6.60
2018-11-27T07:25:42.246Z,6.70
2018-11-27T07:28:11.873Z,6.60
2018-11-27T07:30:42.783Z,6.60
2018-11-27T07:33:12.802Z,6.60
2018-11-27T07:35:42.392Z,6.70
2018-11-27T07:38:12.443Z,6.60
2018-11-27T07:40:42.592Z,6.70
2018-11-27T07:43:13.841Z,6.70
2018-11-27T07:45:43.772Z,6.70
2018-11-27T07:48:13.772Z,6.70
2018-11-27T07:50:43.701Z,6.80
2018-11-27T07:53:14.072Z,6.80
2018-11-27T07:55:44.132Z,6.80
2018-11-27T07:58:14.013Z,6.90
2018-11-27T08:00:44.885Z,6.90
2018-11-27T08:03:14.991Z,6.90
2018-11-27T08:05:45.135Z,7.00
2018-11-27T08:08:17.681Z,7.00
2018-11-27T08:10:49.121Z,7.20
2018-11-27T08:13:19.182Z,7.10
2018-11-27T08:15:49.012Z,7.20
2018-11-27T08:18:20.565Z,7.40
2018-11-27T08:20:49.231Z,7.30
2018-11-27T08:23:19.062Z,7.30
2018-11-27T08:25:49.012Z,7.40
2018-11-27T08:28:19.023Z,7.40
2018-11-27T08:30:49.091Z,7.50
2018-11-27T08:33:19.052Z,7.50
2018-11-27T08:35:48.980Z,7.40
2018-11-27T08:38:19.322Z,7.40
2018-11-27T08:40:49.301Z,7.50
2018-11-27T08:43:19.163Z,7.60
2018-11-27T08:45:49.411Z,7.40
2018-11-27T08:48:19.374Z,7.50
2018-11-27T08:50:49.473Z,7.60
2018-11-27T08:53:19.272Z,7.70
2018-11-27T08:55:49.352Z,7.60
2018-11-27T08:58:21.970Z,7.60
2018-11-27T09:00:51.982Z,7.60
2018-11-27T09:03:21.832Z,7.60
2018-11-27T09:05:51.934Z,7.60
2018-11-27T09:08:22.201Z,7.60
2018-11-27T09:10:52.372Z,7.60
2018-11-27T09:13:22.544Z,7.70
2018-11-27T09:15:52.941Z,7.70
2018-11-27T09:18:25.512Z,7.90
2018-11-27T09:20:55.518Z,7.70
2018-11-27T09:23:25.503Z,7.80
2018-11-27T09:25:55.872Z,7.80
2018-11-27T09:28:25.855Z,7.80
2018-11-27T09:30:55.719Z,7.80
2018-11-27T09:33:25.836Z,7.80
2018-11-27T09:35:55.792Z,7.80
2018-11-27T09:38:25.953Z,7.90
2018-11-27T09:40:56.412Z,7.90
2018-11-27T09:43:26.632Z,7.90
2018-11-27T09:45:56.733Z,7.80
2018-11-27T09:48:27.323Z,7.70
2018-11-27T09:50:57.936Z,7.80
2018-11-27T09:53:27.631Z,7.80
2018-11-27T09:55:57.654Z,7.80
2018-11-27T09:58:27.603Z,7.70
2018-11-27T10:00:57.633Z,7.70
2018-11-27T10:03:27.835Z,7.80
2018-11-27T10:05:57.983Z,7.90
2018-11-27T10:08:28.223Z,7.80
2018-11-27T10:10:58.392Z,7.80
2018-11-27T10:13:28.534Z,8.00
2018-11-27T10:15:58.724Z,8.10
2018-11-27T10:18:29.013Z,8.00
2018-11-27T10:20:59.103Z,8.10
2018-11-27T10:23:29.314Z,8.10
2018-11-27T10:25:59.293Z,8.10
2018-11-27T10:28:31.929Z,8.10
2018-11-27T10:30:59.736Z,8.10
2018-11-27T10:33:29.892Z,8.20
2018-11-27T10:35:59.893Z,8.10
2018-11-27T10:38:30.103Z,8.10
2018-11-27T10:41:00.293Z,8.10
2018-11-27T10:43:30.643Z,8.10
2018-11-27T10:46:00.353Z,8.10
2018-11-27T10:48:30.614Z,8.10
2018-11-27T10:51:00.724Z,8.10
2018-11-27T10:53:30.705Z,8.10
2018-11-27T10:56:00.546Z,8.20
2018-11-27T10:58:30.785Z,8.30
2018-11-27T11:01:06.164Z,8.20
2018-11-27T11:03:36.484Z,8.30
2018-11-27T11:06:08.253Z,8.30
2018-11-27T11:08:38.914Z,8.30
2018-11-27T11:11:09.923Z,8.40
2018-11-27T11:13:40.153Z,8.30
2018-11-27T11:16:10.234Z,8.20
2018-11-27T11:18:40.202Z,8.20
2018-11-27T11:21:10.163Z,8.10
2018-11-27T11:23:40.252Z,8.10
2018-11-27T11:26:10.194Z,8.30
2018-11-27T11:28:40.793Z,8.30
2018-11-27T11:31:10.603Z,8.30
2018-11-27T11:33:40.953Z,8.40
2018-11-27T11:36:10.913Z,8.40
2018-11-27T11:38:40.984Z,8.40
2018-11-27T11:41:11.102Z,8.40
2018-11-27T11:43:41.343Z,8.30
2018-11-27T11:46:11.423Z,8.30
2018-11-27T11:48:41.575Z,8.50
2018-11-27T11:51:11.702Z,8.30
2018-11-27T11:53:41.794Z,8.40
2018-11-27T11:56:12.045Z,8.40
2018-11-27T11:58:41.973Z,8.40
2018-11-27T12:01:12.165Z,8.40
2018-11-27T12:03:42.394Z,8.40
2018-11-27T12:06:12.713Z,8.30
2018-11-27T12:08:42.715Z,8.30
2018-11-27T12:11:12.965Z,8.40
2018-11-27T12:13:42.792Z,8.40
2018-11-27T12:16:12.833Z,8.40
2018-11-27T12:18:43.553Z,8.30
2018-11-27T12:21:13.682Z,8.20
2018-11-27T12:23:44.262Z,8.10
2018-11-27T12:26:14.114Z,8.10
2018-11-27T12:28:44.847Z,8.00
2018-11-27T12:31:14.153Z,7.90
2018-11-27T12:33:44.493Z,8.00
2018-11-27T12:36:14.523Z,7.90
2018-11-27T12:38:44.502Z,8.00
2018-11-27T12:41:14.354Z,8.10
2018-11-27T12:43:44.262Z,8.00
2018-11-27T12:46:14.253Z,8.00
2018-11-27T12:48:44.123Z,7.90
2018-11-27T12:51:14.315Z,8.00
2018-11-27T12:53:44.064Z,8.10
2018-11-27T12:56:13.963Z,8.00
2018-11-27T12:58:44.283Z,7.90
2018-11-27T13:01:14.233Z,7.90
2018-11-27T13:03:44.144Z,7.90
2018-11-27T13:06:14.613Z,7.90
2018-11-27T13:08:44.473Z,7.90
2018-11-27T13:11:15.083Z,7.80
2018-11-27T13:13:45.394Z,7.90
2018-11-27T13:16:15.593Z,7.90
2018-11-27T13:18:45.583Z,8.00
2018-11-27T13:21:15.913Z,8.00
2018-11-27T13:23:46.083Z,8.00
2018-11-27T13:26:16.214Z,8.10
2018-11-27T13:28:46.373Z,8.10
2018-11-27T13:31:18.773Z,8.10
2018-11-27T13:34:00.973Z,8.10
2018-11-27T13:36:31.013Z,8.10
2018-11-27T13:39:17.293Z,8.00
2018-11-27T13:41:48.073Z,8.00
2018-11-27T13:44:18.452Z,7.70
2018-11-27T13:46:48.387Z,7.70
2018-11-27T13:49:18.313Z,7.60
2018-11-27T13:51:48.293Z,7.60
2018-11-27T13:54:18.151Z,7.80
2018-11-27T13:56:48.023Z,7.70
2018-11-27T13:59:18.043Z,7.90
2018-11-27T14:01:47.939Z,7.70
2018-11-27T14:04:18.573Z,7.70
2018-11-27T14:06:48.482Z,7.80
2018-11-27T14:09:18.475Z,7.80
2018-11-27T14:11:48.443Z,7.70
2018-11-27T14:14:18.754Z,7.80
2018-11-27T14:16:48.773Z,7.80
2018-11-27T14:19:18.762Z,7.90
2018-11-27T14:21:48.744Z,7.90
2018-11-27T14:24:18.902Z,8.00
2018-11-27T14:26:48.893Z,7.90
2018-11-27T14:29:19.074Z,8.00
2018-11-27T14:31:49.023Z,8.10
2018-11-27T14:34:19.365Z,8.00
2018-11-27T14:36:49.482Z,7.90
2018-11-27T14:39:19.713Z,7.90
2018-11-27T14:41:49.752Z,7.80
2018-11-27T14:44:19.504Z,7.70
2018-11-27T14:46:49.551Z,7.80
2018-11-27T14:49:19.453Z,7.80
2018-11-27T14:51:49.752Z,7.80
2018-11-27T14:54:19.872Z,7.80
2018-11-27T14:56:49.932Z,7.80
2018-11-27T14:59:19.893Z,7.80
2018-11-27T15:01:50.031Z,7.80
2018-11-27T15:04:20.112Z,7.70
2018-11-27T15:06:50.113Z,7.80
2018-11-27T15:09:21.056Z,7.70
2018-11-27T15:11:50.884Z,7.80
2018-11-27T15:14:25.217Z,7.70
2018-11-27T15:16:50.753Z,7.80
2018-11-27T15:19:20.933Z,7.80
2018-11-27T15:21:51.003Z,7.70
2018-11-27T15:24:21.173Z,7.60
2018-11-27T15:26:52.472Z,7.60
2018-11-27T15:29:22.366Z,7.50
2018-11-27T15:31:53.145Z,7.60
2018-11-27T15:34:23.855Z,7.60
2018-11-27T15:36:53.227Z,7.60
2018-11-27T15:39:22.447Z,7.70
2018-11-27T15:41:52.614Z,7.60
2018-11-27T15:44:22.734Z,7.60
2018-11-27T15:46:52.642Z,7.50
2018-11-27T15:49:21.981Z,7.60
2018-11-27T15:51:52.174Z,7.40
2018-11-27T15:54:22.333Z,7.50
2018-11-27T15:56:52.513Z,7.40
2018-11-27T15:59:22.583Z,7.50
2018-11-27T16:01:52.813Z,7.40
2018-11-27T16:04:23.038Z,7.40
2018-11-27T16:06:54.434Z,7.40
2018-11-27T16:09:24.595Z,7.30
2018-11-27T16:11:55.135Z,7.20
2018-11-27T16:14:25.233Z,7.20
2018-11-27T16:16:55.233Z,7.30
2018-11-27T16:19:25.483Z,7.20
2018-11-27T16:21:55.400Z,7.20
2018-11-27T16:24:25.533Z,7.10
2018-11-27T16:26:55.474Z,7.20
2018-11-27T16:29:25.383Z,7.10
2018-11-27T16:31:55.324Z,7.10
2018-11-27T16:34:25.396Z,7.10
2018-11-27T16:36:55.379Z,7.00
2018-11-27T16:39:25.374Z,7.10
2018-11-27T16:41:55.664Z,7.10
2018-11-27T16:44:25.684Z,7.00
2018-11-27T16:46:56.045Z,7.00
2018-11-27T16:49:26.197Z,7.10
2018-11-27T16:51:56.523Z,7.10
2018-11-27T16:54:26.445Z,7.00
2018-11-27T16:56:56.405Z,7.10
2018-11-27T16:59:26.455Z,7.10
2018-11-27T17:01:56.706Z,7.00
2018-11-27T17:04:26.934Z,7.10
2018-11-27T17:06:57.273Z,7.10
2018-11-27T17:09:27.514Z,7.10
2018-11-27T17:11:59.064Z,7.20
2018-11-27T17:14:29.624Z,7.10
2018-11-27T17:16:59.823Z,7.10
2018-11-27T17:19:29.934Z,7.10
2018-11-27T17:21:59.964Z,7.10
2018-11-27T17:24:29.955Z,7.00
2018-11-27T17:26:59.964Z,7.00
2018-11-27T17:29:30.045Z,7.10
2018-11-27T17:31:59.843Z,7.10
2018-11-27T17:34:29.923Z,7.00
2018-11-27T17:36:59.973Z,7.10
2018-11-27T17:39:30.414Z,7.10
2018-11-27T17:42:00.755Z,7.00
2018-11-27T17:44:30.735Z,7.00
2018-11-27T17:47:00.923Z,7.00
2018-11-27T17:49:31.274Z,7.00
2018-11-27T17:52:01.715Z,7.00
2018-11-27T17:54:31.856Z,7.00
2018-11-27T17:57:02.433Z,6.90
2018-11-27T17:59:32.446Z,7.00
2018-11-27T18:02:02.519Z,7.00
2018-11-27T18:04:32.433Z,7.10
2018-11-27T18:07:02.424Z,7.10
2018-11-27T18:09:32.540Z,7.10
2018-11-27T18:12:02.706Z,7.10
2018-11-27T18:14:32.604Z,7.00
2018-11-27T18:17:02.610Z,7.00
2018-11-27T18:19:33.063Z,7.00
2018-11-27T18:22:03.324Z,7.10
2018-11-27T18:24:33.314Z,7.10
2018-11-27T18:27:03.485Z,7.10
2018-11-27T18:29:33.983Z,7.10
2018-11-27T18:32:04.155Z,7.10
2018-11-27T18:34:34.156Z,7.10
2018-11-27T18:37:04.395Z,7.10
2018-11-27T18:39:34.673Z,7.40
2018-11-27T18:42:04.703Z,7.40
2018-11-27T18:44:34.854Z,7.40
2018-11-27T18:47:05.014Z,7.40
2018-11-27T18:49:34.925Z,7.30
2018-11-27T18:52:05.204Z,7.40
2018-11-27T18:54:35.494Z,7.30
2018-11-27T18:57:05.184Z,7.40
2018-11-27T18:59:35.104Z,7.40
2018-11-27T19:02:05.364Z,7.40
2018-11-27T19:04:35.664Z,7.30
2018-11-27T19:07:06.083Z,7.30
2018-11-27T19:09:36.388Z,7.10
2018-11-27T19:12:06.914Z,7.20
2018-11-27T19:14:37.114Z,7.20
2018-11-27T19:17:07.647Z,7.30
2018-11-27T19:19:37.604Z,7.10
2018-11-27T19:22:08.613Z,7.00
2018-11-27T19:24:38.734Z,6.90
2018-11-27T19:27:08.684Z,6.90
2018-11-27T19:29:38.694Z,6.90
2018-11-27T19:32:08.676Z,7.00
2018-11-27T19:34:38.494Z,6.90
2018-11-27T19:37:08.413Z,6.80
2018-11-27T19:39:38.159Z,6.80
2018-11-27T19:42:08.254Z,6.90
2018-11-27T19:44:38.090Z,6.80
2018-11-27T19:47:08.055Z,6.80
2018-11-27T19:49:38.232Z,6.70
2018-11-27T19:52:08.004Z,6.70
2018-11-27T19:54:38.194Z,6.60
2018-11-27T19:57:08.393Z,6.60
2018-11-27T19:59:38.513Z,6.60
2018-11-27T20:02:08.470Z,6.40
2018-11-27T20:04:38.388Z,6.40
2018-11-27T20:07:08.573Z,6.40
2018-11-27T20:09:38.602Z,6.30
2018-11-27T20:12:08.572Z,6.10
2018-11-27T20:14:38.884Z,5.90
2018-11-27T20:17:09.351Z,5.80
2018-11-27T20:19:39.516Z,5.70
2018-11-27T20:22:09.453Z,5.50
2018-11-27T20:24:39.353Z,5.40
2018-11-27T20:27:09.724Z,5.20
2018-11-27T20:29:39.722Z,5.20
2018-11-27T20:32:10.003Z,5.10
2018-11-27T20:34:39.983Z,5.10
2018-11-27T20:37:10.223Z,4.90
2018-11-27T20:39:40.384Z,4.90
2018-11-27T20:42:10.423Z,4.80
2018-11-27T20:44:40.573Z,4.70
2018-11-27T20:47:10.272Z,4.70
2018-11-27T20:49:40.473Z,4.60
2018-11-27T20:52:10.495Z,4.60
2018-11-27T20:54:40.773Z,4.50
2018-11-27T20:57:10.864Z,4.40
2018-11-27T20:59:41.073Z,4.40
2018-11-27T21:02:11.457Z,4.50
2018-11-27T21:04:41.473Z,4.40
2018-11-27T21:07:11.634Z,4.30
2018-11-27T21:09:41.632Z,4.30
2018-11-27T21:12:11.494Z,4.30
2018-11-27T21:14:42.227Z,4.20
2018-11-27T21:17:11.508Z,4.20
2018-11-27T21:19:41.123Z,4.10
2018-11-27T21:22:11.282Z,4.20
2018-11-27T21:24:41.443Z,4.20
2018-11-27T21:27:11.693Z,4.20
2018-11-27T21:29:41.615Z,4.10
2018-11-27T21:32:11.724Z,4.20
2018-11-27T21:34:41.824Z,4.10
2018-11-27T21:37:11.924Z,4.10
2018-11-27T21:39:42.233Z,4.10
2018-11-27T21:42:12.243Z,4.10
2018-11-27T21:44:42.156Z,4.10
2018-11-27T21:47:12.323Z,4.10
2018-11-27T21:49:42.313Z,4.00
2018-11-27T21:52:12.803Z,4.00
2018-11-27T21:54:42.453Z,4.00
2018-11-27T21:57:12.003Z,4.00
2018-11-27T21:59:41.563Z,4.00
2018-11-27T22:02:11.503Z,3.90
2018-11-27T22:04:41.353Z,4.00
2018-11-27T22:07:11.453Z,4.00
2018-11-27T22:09:41.303Z,4.00
2018-11-27T22:12:11.264Z,4.00
2018-11-27T22:14:40.892Z,4.00
2018-11-27T22:17:10.772Z,4.00
2018-11-27T22:19:41.131Z,4.00
2018-11-27T22:22:11.393Z,4.00
2018-11-27T22:24:41.553Z,4.00
2018-11-27T22:27:11.552Z,4.00
2018-11-27T22:29:41.676Z,4.10
2018-11-27T22:32:11.883Z,4.20
2018-11-27T22:34:41.923Z,4.20
2018-11-27T22:37:12.002Z,4.30
2018-11-27T22:39:41.933Z,4.30
2018-11-27T22:42:12.003Z,4.20
2018-11-27T22:44:41.752Z,4.20
2018-11-27T22:47:11.732Z,4.10
2018-11-27T22:49:41.773Z,4.00
2018-11-27T22:52:11.703Z,4.10
2018-11-27T22:54:42.893Z,4.10
2018-11-27T22:57:12.873Z,4.00
2018-11-27T22:59:42.868Z,4.10
2018-11-27T23:02:13.022Z,4.10
2018-11-27T23:04:43.113Z,4.20
2018-11-27T23:07:17.996Z,4.40
2018-11-27T23:09:47.982Z,4.50
2018-11-27T23:12:18.026Z,4.70
2018-11-27T23:14:48.123Z,4.70
2018-11-27T23:17:17.883Z,4.80
2018-11-27T23:19:47.882Z,4.80
2018-11-27T23:22:17.874Z,4.90
2018-11-27T23:24:48.302Z,4.90
2018-11-27T23:27:18.202Z,4.90
2018-11-27T23:29:48.353Z,5.00
2018-11-27T23:32:17.676Z,5.00
2018-11-27T23:34:47.753Z,4.80
2018-11-27T23:37:18.583Z,4.80
2018-11-27T23:39:48.443Z,4.80
2018-11-27T23:42:18.520Z,4.70
2018-11-27T23:44:48.443Z,4.90
2018-11-27T23:47:18.543Z,5.00
2018-11-27T23:49:48.561Z,4.90
2018-11-27T23:52:18.672Z,5.00
2018-11-27T23:54:48.652Z,5.00
2018-11-27T23:57:18.644Z,5.10
2018-11-27T23:59:48.733Z,5.00
